sensor_id;sensor_type;location;lat;lon;timestamp;P1;durP1;ratioP1;P2;durP2;ratioP2
8777;SDS011;4425;50.872;4.712;2023-11-21T00:00:10;0.20;;;0.20;;
8777;SDS011;4425;50.872;4.712;2023-11-21T00:02:38;0.20;;;0.20;;
8777;SDS011;4425;50.872;4.712;2023-11-21T00:05:06;0.40;;;0.40;;
8777;SDS011;4425;50.872;4.712;2023-11-21T00:07:35;0.90;;;0.90;;
8777;SDS011;4425;50.872;4.712;2023-11-21T00:10:03;0.40;;;0.40;;
8777;SDS011;4425;50.872;4.712;2023-11-21T00:12:33;0.60;;;0.60;;
8777;SDS011;4425;50.872;4.712;2023-11-21T00:15:00;0.93;;;0.93;;
8777;SDS011;4425;50.872;4.712;2023-11-21T00:17:27;1.40;;;0.98;;
8777;SDS011;4425;50.872;4.712;2023-11-21T00:19:54;0.45;;;0.35;;
8777;SDS011;4425;50.872;4.712;2023-11-21T00:22:20;0.52;;;0.52;;
8777;SDS011;4425;50.872;4.712;2023-11-21T00:24:47;1.33;;;1.33;;
8777;SDS011;4425;50.872;4.712;2023-11-21T00:27:16;0.73;;;0.73;;
8777;SDS011;4425;50.872;4.712;2023-11-21T00:29:42;1.40;;;0.70;;
8777;SDS011;4425;50.872;4.712;2023-11-21T00:32:09;0.25;;;0.25;;
8777;SDS011;4425;50.872;4.712;2023-11-21T00:34:36;0.50;;;0.50;;
8777;SDS011;4425;50.872;4.712;2023-11-21T00:37:04;0.80;;;0.80;;
8777;SDS011;4425;50.872;4.712;2023-11-21T00:39:30;0.20;;;0.20;;
8777;SDS011;4425;50.872;4.712;2023-11-21T00:41:58;33.28;;;19.65;;
8777;SDS011;4425;50.872;4.712;2023-11-21T00:44:26;33.30;;;17.83;;
8777;SDS011;4425;50.872;4.712;2023-11-21T00:46:53;30.20;;;17.08;;
8777;SDS011;4425;50.872;4.712;2023-11-21T00:49:20;30.90;;;17.27;;
8777;SDS011;4425;50.872;4.712;2023-11-21T00:51:47;30.85;;;15.93;;
8777;SDS011;4425;50.872;4.712;2023-11-21T00:54:13;29.00;;;16.38;;
8777;SDS011;4425;50.872;4.712;2023-11-21T00:56:48;32.33;;;16.85;;
8777;SDS011;4425;50.872;4.712;2023-11-21T00:59:15;30.77;;;16.00;;
8777;SDS011;4425;50.872;4.712;2023-11-21T01:01:44;5.38;;;3.13;;
8777;SDS011;4425;50.872;4.712;2023-11-21T01:04:11;1.30;;;1.00;;
8777;SDS011;4425;50.872;4.712;2023-11-21T01:06:37;1.50;;;1.50;;
8777;SDS011;4425;50.872;4.712;2023-11-21T01:09:04;0.43;;;0.43;;
8777;SDS011;4425;50.872;4.712;2023-11-21T01:11:33;1.50;;;0.80;;
8777;SDS011;4425;50.872;4.712;2023-11-21T01:14:04;0.40;;;0.40;;
8777;SDS011;4425;50.872;4.712;2023-11-21T01:16:31;0.25;;;0.25;;
8777;SDS011;4425;50.872;4.712;2023-11-21T01:19:02;0.68;;;0.68;;
8777;SDS011;4425;50.872;4.712;2023-11-21T01:21:29;0.30;;;0.30;;
8777;SDS011;4425;50.872;4.712;2023-11-21T01:23:56;0.80;;;0.80;;
8777;SDS011;4425;50.872;4.712;2023-11-21T01:26:23;0.75;;;0.75;;
8777;SDS011;4425;50.872;4.712;2023-11-21T01:28:51;0.98;;;0.98;;
8777;SDS011;4425;50.872;4.712;2023-11-21T01:31:18;0.20;;;0.20;;
8777;SDS011;4425;50.872;4.712;2023-11-21T01:33:45;1.20;;;1.20;;
8777;SDS011;4425;50.872;4.712;2023-11-21T01:36:15;1.00;;;0.88;;
8777;SDS011;4425;50.872;4.712;2023-11-21T01:38:41;0.30;;;0.30;;
8777;SDS011;4425;50.872;4.712;2023-11-21T01:41:08;0.40;;;0.40;;
8777;SDS011;4425;50.872;4.712;2023-11-21T01:43:36;2.45;;;2.17;;
8777;SDS011;4425;50.872;4.712;2023-11-21T01:46:03;0.20;;;0.20;;
8777;SDS011;4425;50.872;4.712;2023-11-21T01:48:31;1.40;;;1.40;;
8777;SDS011;4425;50.872;4.712;2023-11-21T01:50:59;29.35;;;15.68;;
8777;SDS011;4425;50.872;4.712;2023-11-21T01:53:27;32.78;;;16.00;;
8777;SDS011;4425;50.872;4.712;2023-11-21T01:55:55;0.50;;;0.50;;
8777;SDS011;4425;50.872;4.712;2023-11-21T01:58:22;0.50;;;0.50;;
8777;SDS011;4425;50.872;4.712;2023-11-21T02:00:49;1.20;;;1.20;;
8777;SDS011;4425;50.872;4.712;2023-11-21T02:03:18;0.98;;;0.98;;
8777;SDS011;4425;50.872;4.712;2023-11-21T02:05:45;0.70;;;0.70;;
8777;SDS011;4425;50.872;4.712;2023-11-21T02:08:12;1.05;;;1.05;;
8777;SDS011;4425;50.872;4.712;2023-11-21T02:10:41;1.02;;;0.80;;
8777;SDS011;4425;50.872;4.712;2023-11-21T02:13:07;6.10;;;0.77;;
8777;SDS011;4425;50.872;4.712;2023-11-21T02:15:35;33.67;;;14.23;;
8777;SDS011;4425;50.872;4.712;2023-11-21T02:18:04;28.52;;;13.25;;
8777;SDS011;4425;50.872;4.712;2023-11-21T02:20:31;1.15;;;1.15;;
8777;SDS011;4425;50.872;4.712;2023-11-21T02:23:01;1.00;;;1.00;;
8777;SDS011;4425;50.872;4.712;2023-11-21T02:25:29;0.68;;;0.68;;
8777;SDS011;4425;50.872;4.712;2023-11-21T02:27:57;1.55;;;1.45;;
8777;SDS011;4425;50.872;4.712;2023-11-21T02:30:25;0.80;;;0.80;;
8777;SDS011;4425;50.872;4.712;2023-11-21T02:32:53;3.28;;;2.08;;
8777;SDS011;4425;50.872;4.712;2023-11-21T02:35:19;0.63;;;0.63;;
8777;SDS011;4425;50.872;4.712;2023-11-21T02:37:47;0.30;;;0.30;;
8777;SDS011;4425;50.872;4.712;2023-11-21T02:40:15;29.58;;;13.85;;
8777;SDS011;4425;50.872;4.712;2023-11-21T02:42:43;31.15;;;13.02;;
8777;SDS011;4425;50.872;4.712;2023-11-21T02:45:10;0.30;;;0.30;;
8777;SDS011;4425;50.872;4.712;2023-11-21T02:47:38;1.50;;;1.00;;
8777;SDS011;4425;50.872;4.712;2023-11-21T02:50:05;1.30;;;1.15;;
8777;SDS011;4425;50.872;4.712;2023-11-21T02:52:33;0.55;;;0.55;;
8777;SDS011;4425;50.872;4.712;2023-11-21T02:55:00;2.87;;;2.57;;
8777;SDS011;4425;50.872;4.712;2023-11-21T02:57:28;0.50;;;0.50;;
8777;SDS011;4425;50.872;4.712;2023-11-21T02:59:56;0.20;;;0.20;;
8777;SDS011;4425;50.872;4.712;2023-11-21T03:02:22;0.30;;;0.30;;
8777;SDS011;4425;50.872;4.712;2023-11-21T03:04:49;14.27;;;7.15;;
8777;SDS011;4425;50.872;4.712;2023-11-21T03:07:16;0.50;;;0.50;;
8777;SDS011;4425;50.872;4.712;2023-11-21T03:09:44;0.30;;;0.30;;
8777;SDS011;4425;50.872;4.712;2023-11-21T03:12:11;0.20;;;0.20;;
8777;SDS011;4425;50.872;4.712;2023-11-21T03:14:39;0.40;;;0.40;;
8777;SDS011;4425;50.872;4.712;2023-11-21T03:17:06;0.25;;;0.25;;
8777;SDS011;4425;50.872;4.712;2023-11-21T03:19:33;0.38;;;0.38;;
8777;SDS011;4425;50.872;4.712;2023-11-21T03:22:00;0.20;;;0.20;;
8777;SDS011;4425;50.872;4.712;2023-11-21T03:24:27;0.20;;;0.20;;
8777;SDS011;4425;50.872;4.712;2023-11-21T03:26:53;25.20;;;12.50;;
8777;SDS011;4425;50.872;4.712;2023-11-21T03:29:20;30.85;;;13.80;;
8777;SDS011;4425;50.872;4.712;2023-11-21T03:31:49;26.90;;;12.50;;
8777;SDS011;4425;50.872;4.712;2023-11-21T03:34:23;26.05;;;12.93;;
8777;SDS011;4425;50.872;4.712;2023-11-21T03:36:51;24.30;;;12.07;;
8777;SDS011;4425;50.872;4.712;2023-11-21T03:39:19;31.65;;;13.95;;
8777;SDS011;4425;50.872;4.712;2023-11-21T03:41:46;1.70;;;1.00;;
8777;SDS011;4425;50.872;4.712;2023-11-21T03:44:13;0.20;;;0.20;;
8777;SDS011;4425;50.872;4.712;2023-11-21T03:46:40;0.30;;;0.30;;
8777;SDS011;4425;50.872;4.712;2023-11-21T03:49:08;0.30;;;0.30;;
8777;SDS011;4425;50.872;4.712;2023-11-21T03:51:36;0.20;;;0.20;;
8777;SDS011;4425;50.872;4.712;2023-11-21T03:54:03;0.20;;;0.20;;
8777;SDS011;4425;50.872;4.712;2023-11-21T03:56:30;0.20;;;0.20;;
8777;SDS011;4425;50.872;4.712;2023-11-21T03:58:57;0.20;;;0.20;;
8777;SDS011;4425;50.872;4.712;2023-11-21T04:01:24;0.30;;;0.30;;
8777;SDS011;4425;50.872;4.712;2023-11-21T04:03:51;0.20;;;0.20;;
8777;SDS011;4425;50.872;4.712;2023-11-21T04:06:19;0.20;;;0.20;;
8777;SDS011;4425;50.872;4.712;2023-11-21T04:08:46;1.02;;;1.02;;
8777;SDS011;4425;50.872;4.712;2023-11-21T04:11:13;0.20;;;0.20;;
8777;SDS011;4425;50.872;4.712;2023-11-21T04:13:40;0.20;;;0.20;;
8777;SDS011;4425;50.872;4.712;2023-11-21T04:16:08;0.20;;;0.20;;
8777;SDS011;4425;50.872;4.712;2023-11-21T04:18:35;0.40;;;0.40;;
8777;SDS011;4425;50.872;4.712;2023-11-21T04:21:03;0.90;;;0.90;;
8777;SDS011;4425;50.872;4.712;2023-11-21T04:23:32;0.30;;;0.30;;
8777;SDS011;4425;50.872;4.712;2023-11-21T04:25:59;0.17;;;0.17;;
8777;SDS011;4425;50.872;4.712;2023-11-21T04:28:27;0.60;;;0.60;;
8777;SDS011;4425;50.872;4.712;2023-11-21T04:30:53;0.20;;;0.20;;
8777;SDS011;4425;50.872;4.712;2023-11-21T04:33:20;3.90;;;3.70;;
8777;SDS011;4425;50.872;4.712;2023-11-21T04:35:47;0.90;;;0.90;;
8777;SDS011;4425;50.872;4.712;2023-11-21T04:38:14;0.50;;;0.50;;
8777;SDS011;4425;50.872;4.712;2023-11-21T04:40:42;1.30;;;1.30;;
8777;SDS011;4425;50.872;4.712;2023-11-21T04:43:09;0.30;;;0.30;;
8777;SDS011;4425;50.872;4.712;2023-11-21T04:45:36;3.10;;;2.90;;
8777;SDS011;4425;50.872;4.712;2023-11-21T04:48:03;25.92;;;12.63;;
8777;SDS011;4425;50.872;4.712;2023-11-21T04:50:31;26.08;;;12.70;;
8777;SDS011;4425;50.872;4.712;2023-11-21T04:52:58;27.48;;;12.15;;
8777;SDS011;4425;50.872;4.712;2023-11-21T04:55:25;28.25;;;11.88;;
8777;SDS011;4425;50.872;4.712;2023-11-21T04:57:54;27.08;;;12.55;;
8777;SDS011;4425;50.872;4.712;2023-11-21T05:00:21;0.40;;;0.40;;
8777;SDS011;4425;50.872;4.712;2023-11-21T05:02:48;1.60;;;1.00;;
8777;SDS011;4425;50.872;4.712;2023-11-21T05:05:15;0.45;;;0.45;;
8777;SDS011;4425;50.872;4.712;2023-11-21T05:07:42;0.30;;;0.30;;
8777;SDS011;4425;50.872;4.712;2023-11-21T05:10:09;0.10;;;0.10;;
8777;SDS011;4425;50.872;4.712;2023-11-21T05:12:39;0.20;;;0.20;;
8777;SDS011;4425;50.872;4.712;2023-11-21T05:15:09;0.20;;;0.20;;
8777;SDS011;4425;50.872;4.712;2023-11-21T05:17:40;0.20;;;0.20;;
8777;SDS011;4425;50.872;4.712;2023-11-21T05:20:08;0.13;;;0.13;;
8777;SDS011;4425;50.872;4.712;2023-11-21T05:22:36;0.20;;;0.20;;
8777;SDS011;4425;50.872;4.712;2023-11-21T05:25:03;0.22;;;0.22;;
8777;SDS011;4425;50.872;4.712;2023-11-21T05:27:32;0.20;;;0.20;;
8777;SDS011;4425;50.872;4.712;2023-11-21T05:30:00;0.20;;;0.20;;
8777;SDS011;4425;50.872;4.712;2023-11-21T05:32:28;0.20;;;0.20;;
8777;SDS011;4425;50.872;4.712;2023-11-21T05:34:55;0.60;;;0.60;;
8777;SDS011;4425;50.872;4.712;2023-11-21T05:37:22;5.70;;;1.10;;
8777;SDS011;4425;50.872;4.712;2023-11-21T05:39:49;0.20;;;0.20;;
8777;SDS011;4425;50.872;4.712;2023-11-21T05:42:16;0.20;;;0.20;;
8777;SDS011;4425;50.872;4.712;2023-11-21T05:44:43;22.20;;;11.48;;
8777;SDS011;4425;50.872;4.712;2023-11-21T05:47:10;25.08;;;12.93;;
8777;SDS011;4425;50.872;4.712;2023-11-21T05:49:40;24.23;;;11.57;;
8777;SDS011;4425;50.872;4.712;2023-11-21T05:52:07;26.23;;;11.37;;
8777;SDS011;4425;50.872;4.712;2023-11-21T05:54:35;0.90;;;0.90;;
8777;SDS011;4425;50.872;4.712;2023-11-21T05:57:02;0.30;;;0.30;;
8777;SDS011;4425;50.872;4.712;2023-11-21T05:59:29;0.20;;;0.20;;
8777;SDS011;4425;50.872;4.712;2023-11-21T06:01:56;1.35;;;0.75;;
8777;SDS011;4425;50.872;4.712;2023-11-21T06:04:23;0.30;;;0.30;;
8777;SDS011;4425;50.872;4.712;2023-11-21T06:06:52;0.20;;;0.20;;
8777;SDS011;4425;50.872;4.712;2023-11-21T06:09:19;20.33;;;10.07;;
8777;SDS011;4425;50.872;4.712;2023-11-21T06:11:46;0.28;;;0.28;;
8777;SDS011;4425;50.872;4.712;2023-11-21T06:14:13;0.70;;;0.70;;
8777;SDS011;4425;50.872;4.712;2023-11-21T06:16:43;0.50;;;0.50;;
8777;SDS011;4425;50.872;4.712;2023-11-21T06:19:10;0.60;;;0.60;;
8777;SDS011;4425;50.872;4.712;2023-11-21T06:21:37;0.30;;;0.30;;
8777;SDS011;4425;50.872;4.712;2023-11-21T06:24:06;0.60;;;0.60;;
8777;SDS011;4425;50.872;4.712;2023-11-21T06:26:33;17.70;;;9.65;;
8777;SDS011;4425;50.872;4.712;2023-11-21T06:29:00;0.80;;;0.80;;
8777;SDS011;4425;50.872;4.712;2023-11-21T06:31:28;0.40;;;0.40;;
8777;SDS011;4425;50.872;4.712;2023-11-21T06:33:55;0.80;;;0.70;;
8777;SDS011;4425;50.872;4.712;2023-11-21T06:36:23;0.30;;;0.30;;
8777;SDS011;4425;50.872;4.712;2023-11-21T06:38:51;1.70;;;1.10;;
8777;SDS011;4425;50.872;4.712;2023-11-21T06:41:19;0.47;;;0.47;;
8777;SDS011;4425;50.872;4.712;2023-11-21T06:43:46;0.50;;;0.50;;
8777;SDS011;4425;50.872;4.712;2023-11-21T06:46:14;0.30;;;0.30;;
8777;SDS011;4425;50.872;4.712;2023-11-21T06:48:42;0.30;;;0.30;;
8777;SDS011;4425;50.872;4.712;2023-11-21T06:51:09;0.20;;;0.20;;
8777;SDS011;4425;50.872;4.712;2023-11-21T06:53:36;0.20;;;0.20;;
8777;SDS011;4425;50.872;4.712;2023-11-21T06:56:03;0.20;;;0.20;;
8777;SDS011;4425;50.872;4.712;2023-11-21T06:58:33;0.20;;;0.20;;
8777;SDS011;4425;50.872;4.712;2023-11-21T07:01:00;1.90;;;1.80;;
8777;SDS011;4425;50.872;4.712;2023-11-21T07:03:27;0.30;;;0.30;;
8777;SDS011;4425;50.872;4.712;2023-11-21T07:05:54;19.45;;;9.52;;
8777;SDS011;4425;50.872;4.712;2023-11-21T07:08:21;21.95;;;10.50;;
8777;SDS011;4425;50.872;4.712;2023-11-21T07:10:48;23.25;;;8.73;;
8777;SDS011;4425;50.872;4.712;2023-11-21T07:13:15;0.20;;;0.20;;
8777;SDS011;4425;50.872;4.712;2023-11-21T07:15:43;0.15;;;0.15;;
8777;SDS011;4425;50.872;4.712;2023-11-21T07:18:10;0.40;;;0.40;;
8777;SDS011;4425;50.872;4.712;2023-11-21T07:20:37;0.20;;;0.20;;
8777;SDS011;4425;50.872;4.712;2023-11-21T07:23:04;0.10;;;0.10;;
8777;SDS011;4425;50.872;4.712;2023-11-21T07:25:31;0.20;;;0.20;;
8777;SDS011;4425;50.872;4.712;2023-11-21T07:27:59;1.60;;;1.50;;
8777;SDS011;4425;50.872;4.712;2023-11-21T07:30:25;1.60;;;1.60;;
8777;SDS011;4425;50.872;4.712;2023-11-21T07:32:54;0.43;;;0.43;;
8777;SDS011;4425;50.872;4.712;2023-11-21T07:35:21;0.88;;;0.88;;
8777;SDS011;4425;50.872;4.712;2023-11-21T07:37:48;0.40;;;0.40;;
8777;SDS011;4425;50.872;4.712;2023-11-21T07:40:15;0.20;;;0.20;;
8777;SDS011;4425;50.872;4.712;2023-11-21T07:42:43;22.67;;;10.52;;
8777;SDS011;4425;50.872;4.712;2023-11-21T07:45:10;22.20;;;11.43;;
8777;SDS011;4425;50.872;4.712;2023-11-21T07:47:37;0.63;;;0.63;;
8777;SDS011;4425;50.872;4.712;2023-11-21T07:50:06;0.20;;;0.20;;
8777;SDS011;4425;50.872;4.712;2023-11-21T07:52:34;0.77;;;0.77;;
8777;SDS011;4425;50.872;4.712;2023-11-21T07:55:01;0.60;;;0.60;;
8777;SDS011;4425;50.872;4.712;2023-11-21T07:57:28;0.20;;;0.20;;
8777;SDS011;4425;50.872;4.712;2023-11-21T07:59:55;1.00;;;1.00;;
8777;SDS011;4425;50.872;4.712;2023-11-21T08:02:22;0.32;;;0.32;;
8777;SDS011;4425;50.872;4.712;2023-11-21T08:04:51;2.25;;;1.85;;
8777;SDS011;4425;50.872;4.712;2023-11-21T08:07:19;0.20;;;0.20;;
8777;SDS011;4425;50.872;4.712;2023-11-21T08:09:47;0.28;;;0.28;;
8777;SDS011;4425;50.872;4.712;2023-11-21T08:12:17;0.40;;;0.40;;
8777;SDS011;4425;50.872;4.712;2023-11-21T08:14:45;26.75;;;12.30;;
8777;SDS011;4425;50.872;4.712;2023-11-21T08:17:12;20.45;;;11.50;;
8777;SDS011;4425;50.872;4.712;2023-11-21T08:19:39;0.50;;;0.50;;
8777;SDS011;4425;50.872;4.712;2023-11-21T08:22:06;2.00;;;1.30;;
8777;SDS011;4425;50.872;4.712;2023-11-21T08:24:35;0.90;;;0.90;;
8777;SDS011;4425;50.872;4.712;2023-11-21T08:27:02;1.00;;;1.00;;
8777;SDS011;4425;50.872;4.712;2023-11-21T08:29:32;0.60;;;0.60;;
8777;SDS011;4425;50.872;4.712;2023-11-21T08:31:59;0.47;;;0.47;;
8777;SDS011;4425;50.872;4.712;2023-11-21T08:34:26;0.60;;;0.60;;
8777;SDS011;4425;50.872;4.712;2023-11-21T08:36:53;0.20;;;0.20;;
8777;SDS011;4425;50.872;4.712;2023-11-21T08:39:23;0.50;;;0.50;;
8777;SDS011;4425;50.872;4.712;2023-11-21T08:41:53;0.40;;;0.40;;
8777;SDS011;4425;50.872;4.712;2023-11-21T08:44:20;21.75;;;10.93;;
8777;SDS011;4425;50.872;4.712;2023-11-21T08:46:48;23.27;;;12.70;;
8777;SDS011;4425;50.872;4.712;2023-11-21T08:49:15;22.33;;;12.57;;
8777;SDS011;4425;50.872;4.712;2023-11-21T08:51:43;24.45;;;12.38;;
8777;SDS011;4425;50.872;4.712;2023-11-21T08:54:10;24.75;;;12.43;;
8777;SDS011;4425;50.872;4.712;2023-11-21T08:56:37;0.20;;;0.20;;
8777;SDS011;4425;50.872;4.712;2023-11-21T08:59:06;0.20;;;0.20;;
8777;SDS011;4425;50.872;4.712;2023-11-21T09:01:33;0.40;;;0.40;;
8777;SDS011;4425;50.872;4.712;2023-11-21T09:04:00;0.20;;;0.20;;
8777;SDS011;4425;50.872;4.712;2023-11-21T09:06:27;2.30;;;1.60;;
8777;SDS011;4425;50.872;4.712;2023-11-21T09:08:54;0.30;;;0.30;;
8777;SDS011;4425;50.872;4.712;2023-11-21T09:11:21;0.20;;;0.20;;
8777;SDS011;4425;50.872;4.712;2023-11-21T09:13:51;0.30;;;0.30;;
8777;SDS011;4425;50.872;4.712;2023-11-21T09:16:19;0.50;;;0.50;;
8777;SDS011;4425;50.872;4.712;2023-11-21T09:18:46;0.73;;;0.73;;
8777;SDS011;4425;50.872;4.712;2023-11-21T09:21:13;3.30;;;2.40;;
8777;SDS011;4425;50.872;4.712;2023-11-21T09:23:39;23.65;;;4.05;;
8777;SDS011;4425;50.872;4.712;2023-11-21T09:26:06;0.30;;;0.30;;
8777;SDS011;4425;50.872;4.712;2023-11-21T09:28:33;0.30;;;0.30;;
8777;SDS011;4425;50.872;4.712;2023-11-21T09:31:02;0.43;;;0.43;;
8777;SDS011;4425;50.872;4.712;2023-11-21T09:33:31;0.45;;;0.45;;
8777;SDS011;4425;50.872;4.712;2023-11-21T09:35:59;0.30;;;0.30;;
8777;SDS011;4425;50.872;4.712;2023-11-21T09:38:26;0.98;;;0.98;;
8777;SDS011;4425;50.872;4.712;2023-11-21T09:40:54;0.30;;;0.30;;
8777;SDS011;4425;50.872;4.712;2023-11-21T09:43:21;0.40;;;0.40;;
8777;SDS011;4425;50.872;4.712;2023-11-21T09:45:50;0.77;;;0.77;;
8777;SDS011;4425;50.872;4.712;2023-11-21T09:48:23;0.40;;;0.40;;
8777;SDS011;4425;50.872;4.712;2023-11-21T09:50:53;0.80;;;0.80;;
8777;SDS011;4425;50.872;4.712;2023-11-21T09:53:21;0.20;;;0.20;;
8777;SDS011;4425;50.872;4.712;2023-11-21T09:55:51;0.30;;;0.30;;
8777;SDS011;4425;50.872;4.712;2023-11-21T09:58:18;0.20;;;0.20;;
8777;SDS011;4425;50.872;4.712;2023-11-21T10:00:48;0.80;;;0.80;;
8777;SDS011;4425;50.872;4.712;2023-11-21T10:03:19;0.20;;;0.20;;
8777;SDS011;4425;50.872;4.712;2023-11-21T10:05:46;0.20;;;0.20;;
8777;SDS011;4425;50.872;4.712;2023-11-21T10:08:17;0.20;;;0.20;;
8777;SDS011;4425;50.872;4.712;2023-11-21T10:10:48;0.20;;;0.20;;
8777;SDS011;4425;50.872;4.712;2023-11-21T10:13:19;0.22;;;0.22;;
8777;SDS011;4425;50.872;4.712;2023-11-21T10:15:48;0.57;;;0.57;;
8777;SDS011;4425;50.872;4.712;2023-11-21T10:18:16;0.73;;;0.73;;
8777;SDS011;4425;50.872;4.712;2023-11-21T10:20:44;0.32;;;0.32;;
8777;SDS011;4425;50.872;4.712;2023-11-21T10:23:18;0.20;;;0.20;;
8777;SDS011;4425;50.872;4.712;2023-11-21T10:25:44;0.20;;;0.20;;
8777;SDS011;4425;50.872;4.712;2023-11-21T10:28:11;0.38;;;0.38;;
8777;SDS011;4425;50.872;4.712;2023-11-21T10:30:38;1.70;;;1.60;;
8777;SDS011;4425;50.872;4.712;2023-11-21T10:33:06;0.30;;;0.30;;
8777;SDS011;4425;50.872;4.712;2023-11-21T10:35:43;0.70;;;0.70;;
8777;SDS011;4425;50.872;4.712;2023-11-21T10:38:16;0.98;;;0.98;;
8777;SDS011;4425;50.872;4.712;2023-11-21T10:40:44;0.40;;;0.40;;
8777;SDS011;4425;50.872;4.712;2023-11-21T10:43:11;0.70;;;0.70;;
8777;SDS011;4425;50.872;4.712;2023-11-21T10:45:41;1.80;;;0.93;;
8777;SDS011;4425;50.872;4.712;2023-11-21T10:48:08;1.00;;;1.00;;
8777;SDS011;4425;50.872;4.712;2023-11-21T10:50:37;1.13;;;1.02;;
8777;SDS011;4425;50.872;4.712;2023-11-21T10:53:04;1.20;;;1.10;;
8777;SDS011;4425;50.872;4.712;2023-11-21T10:55:31;2.40;;;2.10;;
8777;SDS011;4425;50.872;4.712;2023-11-21T10:58:01;0.30;;;0.30;;
8777;SDS011;4425;50.872;4.712;2023-11-21T11:00:31;0.40;;;0.40;;
8777;SDS011;4425;50.872;4.712;2023-11-21T11:02:59;0.20;;;0.20;;
8777;SDS011;4425;50.872;4.712;2023-11-21T11:05:25;1.05;;;0.85;;
8777;SDS011;4425;50.872;4.712;2023-11-21T11:07:56;2.85;;;1.65;;
8777;SDS011;4425;50.872;4.712;2023-11-21T11:10:26;24.58;;;13.15;;
8777;SDS011;4425;50.872;4.712;2023-11-21T11:12:54;28.60;;;14.27;;
8777;SDS011;4425;50.872;4.712;2023-11-21T11:15:24;31.75;;;13.85;;
8777;SDS011;4425;50.872;4.712;2023-11-21T11:17:52;19.35;;;7.63;;
8777;SDS011;4425;50.872;4.712;2023-11-21T11:20:22;0.40;;;0.40;;
8777;SDS011;4425;50.872;4.712;2023-11-21T11:22:51;0.40;;;0.40;;
8777;SDS011;4425;50.872;4.712;2023-11-21T11:25:37;1.00;;;0.60;;
8777;SDS011;4425;50.872;4.712;2023-11-21T11:28:14;3.40;;;3.10;;
8777;SDS011;4425;50.872;4.712;2023-11-21T11:30:49;0.88;;;0.88;;
8777;SDS011;4425;50.872;4.712;2023-11-21T11:33:26;0.30;;;0.30;;
8777;SDS011;4425;50.872;4.712;2023-11-21T11:36:03;0.28;;;0.28;;
8777;SDS011;4425;50.872;4.712;2023-11-21T11:38:33;0.30;;;0.30;;
8777;SDS011;4425;50.872;4.712;2023-11-21T11:41:01;1.30;;;1.30;;
8777;SDS011;4425;50.872;4.712;2023-11-21T11:43:30;2.47;;;2.25;;
8777;SDS011;4425;50.872;4.712;2023-11-21T11:45:59;1.80;;;1.70;;
8777;SDS011;4425;50.872;4.712;2023-11-21T11:48:29;0.80;;;0.80;;
8777;SDS011;4425;50.872;4.712;2023-11-21T11:51:01;4.85;;;2.47;;
8777;SDS011;4425;50.872;4.712;2023-11-21T11:53:33;2.15;;;1.75;;
8777;SDS011;4425;50.872;4.712;2023-11-21T11:56:27;0.20;;;0.20;;
8777;SDS011;4425;50.872;4.712;2023-11-21T11:58:56;0.35;;;0.35;;
8777;SDS011;4425;50.872;4.712;2023-11-21T12:01:25;1.50;;;1.40;;
8777;SDS011;4425;50.872;4.712;2023-11-21T12:06:55;8.05;;;1.85;;
8777;SDS011;4425;50.872;4.712;2023-11-21T12:09:25;0.45;;;0.45;;
8777;SDS011;4425;50.872;4.712;2023-11-21T12:11:52;3.42;;;2.90;;
8777;SDS011;4425;50.872;4.712;2023-11-21T12:14:21;0.60;;;0.60;;
8777;SDS011;4425;50.872;4.712;2023-11-21T12:16:50;8.43;;;2.00;;
8777;SDS011;4425;50.872;4.712;2023-11-21T12:19:18;0.90;;;0.90;;
8777;SDS011;4425;50.872;4.712;2023-11-21T12:21:47;3.38;;;1.52;;
8777;SDS011;4425;50.872;4.712;2023-11-21T12:24:15;14.60;;;1.73;;
8777;SDS011;4425;50.872;4.712;2023-11-21T12:26:42;0.30;;;0.30;;
8777;SDS011;4425;50.872;4.712;2023-11-21T12:29:10;1.50;;;1.40;;
8777;SDS011;4425;50.872;4.712;2023-11-21T12:31:37;0.47;;;0.47;;
8777;SDS011;4425;50.872;4.712;2023-11-21T12:34:06;0.30;;;0.30;;
8777;SDS011;4425;50.872;4.712;2023-11-21T12:36:36;0.40;;;0.40;;
8777;SDS011;4425;50.872;4.712;2023-11-21T12:39:03;0.60;;;0.43;;
8777;SDS011;4425;50.872;4.712;2023-11-21T12:41:34;0.55;;;0.55;;
8777;SDS011;4425;50.872;4.712;2023-11-21T12:44:01;0.90;;;0.90;;
8777;SDS011;4425;50.872;4.712;2023-11-21T12:46:28;0.63;;;0.63;;
8777;SDS011;4425;50.872;4.712;2023-11-21T12:48:57;1.02;;;0.80;;
8777;SDS011;4425;50.872;4.712;2023-11-21T12:51:25;0.55;;;0.55;;
8777;SDS011;4425;50.872;4.712;2023-11-21T12:53:54;1.65;;;1.55;;
8777;SDS011;4425;50.872;4.712;2023-11-21T12:56:23;1.40;;;1.35;;
8777;SDS011;4425;50.872;4.712;2023-11-21T12:58:53;0.30;;;0.30;;
8777;SDS011;4425;50.872;4.712;2023-11-21T13:01:25;9.07;;;6.00;;
8777;SDS011;4425;50.872;4.712;2023-11-21T13:03:56;1.20;;;1.02;;
8777;SDS011;4425;50.872;4.712;2023-11-21T13:06:26;0.40;;;0.40;;
8777;SDS011;4425;50.872;4.712;2023-11-21T13:08:58;0.10;;;0.10;;
8777;SDS011;4425;50.872;4.712;2023-11-21T13:11:25;0.63;;;0.63;;
8777;SDS011;4425;50.872;4.712;2023-11-21T13:13:52;0.30;;;0.30;;
8777;SDS011;4425;50.872;4.712;2023-11-21T13:16:21;0.20;;;0.20;;
8777;SDS011;4425;50.872;4.712;2023-11-21T13:18:49;0.20;;;0.20;;
8777;SDS011;4425;50.872;4.712;2023-11-21T13:21:15;0.30;;;0.30;;
8777;SDS011;4425;50.872;4.712;2023-11-21T13:23:44;0.40;;;0.40;;
8777;SDS011;4425;50.872;4.712;2023-11-21T13:26:15;1.30;;;1.30;;
8777;SDS011;4425;50.872;4.712;2023-11-21T13:28:45;0.30;;;0.30;;
8777;SDS011;4425;50.872;4.712;2023-11-21T13:31:12;0.20;;;0.20;;
8777;SDS011;4425;50.872;4.712;2023-11-21T13:33:50;3.15;;;2.45;;
8777;SDS011;4425;50.872;4.712;2023-11-21T13:36:20;1.13;;;1.08;;
8777;SDS011;4425;50.872;4.712;2023-11-21T13:38:50;0.60;;;0.52;;
8777;SDS011;4425;50.872;4.712;2023-11-21T13:41:17;0.40;;;0.40;;
8777;SDS011;4425;50.872;4.712;2023-11-21T13:43:45;0.40;;;0.40;;
8777;SDS011;4425;50.872;4.712;2023-11-21T13:46:17;0.40;;;0.40;;
8777;SDS011;4425;50.872;4.712;2023-11-21T13:48:47;0.60;;;0.60;;
8777;SDS011;4425;50.872;4.712;2023-11-21T13:51:16;1.38;;;1.38;;
8777;SDS011;4425;50.872;4.712;2023-11-21T13:53:43;2.97;;;2.50;;
8777;SDS011;4425;50.872;4.712;2023-11-21T13:56:14;2.50;;;1.50;;
8777;SDS011;4425;50.872;4.712;2023-11-21T13:58:46;0.50;;;0.50;;
8777;SDS011;4425;50.872;4.712;2023-11-21T14:01:16;2.20;;;1.95;;
8777;SDS011;4425;50.872;4.712;2023-11-21T14:04:06;2.08;;;1.83;;
8777;SDS011;4425;50.872;4.712;2023-11-21T14:06:44;1.00;;;1.00;;
8777;SDS011;4425;50.872;4.712;2023-11-21T14:09:13;1.17;;;1.08;;
8777;SDS011;4425;50.872;4.712;2023-11-21T14:11:50;1.67;;;1.23;;
8777;SDS011;4425;50.872;4.712;2023-11-21T14:14:18;1.98;;;1.77;;
8777;SDS011;4425;50.872;4.712;2023-11-21T14:16:45;0.47;;;0.47;;
8777;SDS011;4425;50.872;4.712;2023-11-21T14:19:13;2.88;;;1.77;;
8777;SDS011;4425;50.872;4.712;2023-11-21T14:21:42;0.65;;;0.65;;
8777;SDS011;4425;50.872;4.712;2023-11-21T14:24:10;0.10;;;0.10;;
8777;SDS011;4425;50.872;4.712;2023-11-21T14:26:39;0.50;;;0.50;;
8777;SDS011;4425;50.872;4.712;2023-11-21T14:29:09;0.60;;;0.60;;
8777;SDS011;4425;50.872;4.712;2023-11-21T14:31:39;1.48;;;1.38;;
8777;SDS011;4425;50.872;4.712;2023-11-21T14:34:06;55.13;;;15.57;;
8777;SDS011;4425;50.872;4.712;2023-11-21T14:36:33;5.25;;;1.75;;
8777;SDS011;4425;50.872;4.712;2023-11-21T14:39:01;0.93;;;0.93;;
8777;SDS011;4425;50.872;4.712;2023-11-21T14:41:32;0.30;;;0.30;;
8777;SDS011;4425;50.872;4.712;2023-11-21T14:44:00;0.30;;;0.30;;
8777;SDS011;4425;50.872;4.712;2023-11-21T14:46:30;0.88;;;0.30;;
8777;SDS011;4425;50.872;4.712;2023-11-21T14:48:57;0.50;;;0.50;;
8777;SDS011;4425;50.872;4.712;2023-11-21T14:51:38;0.50;;;0.50;;
8777;SDS011;4425;50.872;4.712;2023-11-21T14:54:24;1.23;;;0.95;;
8777;SDS011;4425;50.872;4.712;2023-11-21T14:57:04;0.95;;;0.95;;
8777;SDS011;4425;50.872;4.712;2023-11-21T14:59:34;0.68;;;0.68;;
8777;SDS011;4425;50.872;4.712;2023-11-21T15:02:03;0.67;;;0.67;;
8777;SDS011;4425;50.872;4.712;2023-11-21T15:04:40;0.97;;;0.97;;
8777;SDS011;4425;50.872;4.712;2023-11-21T15:07:08;1.30;;;1.23;;
8777;SDS011;4425;50.872;4.712;2023-11-21T15:09:36;0.50;;;0.50;;
8777;SDS011;4425;50.872;4.712;2023-11-21T15:12:06;1.55;;;1.50;;
8777;SDS011;4425;50.872;4.712;2023-11-21T15:14:43;0.32;;;0.32;;
8777;SDS011;4425;50.872;4.712;2023-11-21T15:17:14;0.50;;;0.50;;
8777;SDS011;4425;50.872;4.712;2023-11-21T15:19:48;0.70;;;0.70;;
8777;SDS011;4425;50.872;4.712;2023-11-21T15:22:15;0.70;;;0.70;;